createdAt,value
2022-12-19T00:01:59.688Z,31.07
2022-12-19T00:04:27.788Z,33.17
2022-12-19T00:06:58.728Z,35.80
2022-12-19T00:09:27.355Z,37.47
2022-12-19T00:11:55.520Z,34.37
2022-12-19T00:14:24.950Z,26.77
2022-12-19T00:16:53.027Z,36.33
2022-12-19T00:19:21.596Z,32.87
2022-12-19T00:21:49.766Z,33.27
2022-12-19T00:24:20.823Z,34.57
2022-12-19T00:26:50.451Z,33.20
2022-12-19T00:29:18.477Z,34.30
2022-12-19T00:35:10.185Z,27.97
2022-12-19T00:37:38.915Z,31.73
2022-12-19T00:40:17.827Z,34.17
2022-12-19T00:42:51.730Z,27.43
2022-12-19T00:45:22.088Z,34.20
2022-12-19T00:48:04.451Z,31.40
2022-12-19T00:50:35.097Z,32.50
2022-12-19T00:53:03.286Z,32.50
2022-12-19T00:55:31.397Z,35.77
2022-12-19T00:57:59.638Z,34.67
2022-12-19T01:00:29.011Z,32.53
2022-12-19T01:02:57.217Z,29.87
2022-12-19T01:05:25.306Z,34.33
2022-12-19T01:07:55.207Z,28.73
2022-12-19T01:10:23.379Z,37.10
2022-12-19T01:12:50.434Z,32.77
2022-12-19T01:15:20.539Z,37.90
2022-12-19T01:17:49.425Z,37.10
2022-12-19T01:20:21.386Z,30.27
2022-12-19T01:23:00.256Z,31.10
2022-12-19T01:25:28.856Z,35.53
2022-12-19T01:27:57.292Z,34.03
2022-12-19T01:30:26.645Z,28.50
2022-12-19T01:32:56.807Z,30.30
2022-12-19T01:35:26.169Z,38.30
2022-12-19T01:38:05.696Z,29.90
2022-12-19T01:40:38.894Z,37.93
2022-12-19T01:43:07.727Z,34.13
2022-12-19T01:45:43.533Z,28.73
2022-12-19T01:48:18.637Z,35.57
2022-12-19T01:51:01.820Z,36.83
2022-12-19T01:53:36.646Z,31.03
2022-12-19T01:56:16.816Z,34.43
2022-12-19T01:58:47.096Z,40.70
2022-12-19T02:01:16.598Z,35.63
2022-12-19T02:03:47.269Z,36.27
2022-12-19T02:06:19.975Z,35.67
2022-12-19T02:08:49.589Z,33.20
2022-12-19T02:11:19.618Z,36.93
2022-12-19T02:13:47.896Z,35.43
2022-12-19T02:16:30.075Z,36.10
2022-12-19T02:19:09.746Z,34.43
2022-12-19T02:21:54.747Z,34.33
2022-12-19T02:25:00.133Z,32.60
2022-12-19T02:27:52.965Z,37.00
2022-12-19T02:30:44.077Z,31.27
2022-12-19T02:33:17.363Z,32.53
2022-12-19T02:35:50.002Z,41.90
2022-12-19T02:38:26.424Z,30.23
2022-12-19T02:41:02.623Z,33.27
2022-12-19T02:43:34.029Z,34.20
2022-12-19T02:46:06.391Z,36.77
2022-12-19T02:48:35.242Z,33.63
2022-12-19T02:51:03.474Z,32.60
2022-12-19T02:53:31.593Z,36.23
2022-12-19T02:56:30.530Z,33.23
2022-12-19T02:59:14.645Z,40.37
2022-12-19T03:01:50.290Z,33.67
2022-12-19T03:04:31.692Z,34.40
2022-12-19T03:07:07.669Z,32.97
2022-12-19T03:09:42.186Z,31.43
2022-12-19T03:12:17.981Z,36.43
2022-12-19T03:14:48.279Z,33.10
2022-12-19T03:17:18.657Z,33.80
2022-12-19T03:19:46.871Z,33.47
2022-12-19T03:22:15.030Z,34.13
2022-12-19T03:24:43.233Z,31.17
2022-12-19T03:27:15.709Z,36.20
2022-12-19T03:29:48.539Z,34.63
2022-12-19T03:32:21.574Z,35.50
2022-12-19T03:34:53.830Z,33.03
2022-12-19T03:37:25.452Z,33.43
2022-12-19T03:40:01.347Z,34.73
2022-12-19T03:42:49.049Z,32.63
2022-12-19T03:45:23.455Z,37.43
2022-12-19T03:47:58.480Z,32.17
2022-12-19T03:50:33.161Z,35.30
2022-12-19T03:53:12.626Z,33.87
2022-12-19T03:55:48.475Z,33.60
2022-12-19T03:58:21.961Z,34.43
2022-12-19T04:00:53.126Z,34.43
2022-12-19T04:03:23.838Z,36.90
2022-12-19T04:05:53.904Z,33.60
2022-12-19T04:08:23.868Z,35.00
2022-12-19T04:10:56.477Z,31.10
2022-12-19T04:13:29.786Z,34.87
2022-12-19T04:16:07.771Z,33.80
2022-12-19T04:18:38.575Z,33.50
2022-12-19T04:21:13.483Z,45.60
2022-12-19T04:23:47.522Z,37.10
2022-12-19T04:26:19.871Z,37.20
2022-12-19T04:28:51.446Z,37.07
2022-12-19T04:31:21.150Z,38.87
2022-12-19T04:33:51.113Z,34.70
2022-12-19T04:36:19.467Z,34.40
2022-12-19T04:38:47.594Z,36.27
2022-12-19T04:41:15.697Z,37.93
2022-12-19T04:43:43.970Z,36.47
2022-12-19T04:46:12.214Z,35.33
2022-12-19T04:48:40.366Z,34.80
2022-12-19T04:51:10.642Z,35.77
2022-12-19T04:53:39.153Z,33.67
2022-12-19T04:56:08.748Z,41.40
2022-12-19T04:58:36.934Z,38.47
2022-12-19T05:01:06.250Z,31.50
2022-12-19T05:03:35.043Z,35.13
2022-12-19T05:06:08.200Z,33.73
2022-12-19T05:08:38.483Z,37.03
2022-12-19T05:11:07.805Z,36.27
2022-12-19T05:13:36.277Z,33.43
2022-12-19T05:16:07.566Z,33.53
2022-12-19T05:18:36.685Z,34.27
2022-12-19T05:21:05.504Z,37.00
2022-12-19T05:23:34.267Z,37.23
2022-12-19T05:26:09.583Z,33.90
2022-12-19T05:28:37.638Z,36.20
2022-12-19T05:31:07.755Z,35.20
2022-12-19T05:33:36.310Z,35.87
2022-12-19T05:36:04.894Z,34.93
2022-12-19T05:38:33.239Z,32.43
2022-12-19T05:41:01.714Z,36.07
2022-12-19T05:43:31.994Z,38.90
2022-12-19T05:46:00.612Z,37.00
2022-12-19T05:48:29.050Z,34.70
2022-12-19T05:50:57.299Z,39.67
2022-12-19T05:53:27.530Z,36.57
2022-12-19T05:56:04.950Z,40.00
2022-12-19T05:58:34.652Z,36.57
2022-12-19T06:01:04.308Z,37.37
2022-12-19T06:03:32.462Z,42.67
2022-12-19T06:06:04.478Z,34.40
2022-12-19T06:08:33.448Z,34.50
2022-12-19T06:11:01.754Z,42.70
2022-12-19T06:13:31.481Z,38.80
2022-12-19T06:16:01.844Z,34.10
2022-12-19T06:18:30.727Z,37.47
2022-12-19T06:21:00.461Z,36.47
2022-12-19T06:23:30.275Z,39.27
2022-12-19T06:25:59.060Z,34.90
2022-12-19T06:28:27.839Z,33.00
2022-12-19T06:30:57.314Z,34.40
2022-12-19T06:33:30.328Z,35.80
2022-12-19T06:36:01.846Z,39.73
2022-12-19T06:38:30.697Z,37.20
2022-12-19T06:41:16.231Z,36.70
2022-12-19T06:43:46.916Z,37.43
2022-12-19T06:46:17.484Z,33.70
2022-12-19T06:48:47.328Z,34.77
2022-12-19T06:51:15.670Z,35.43
2022-12-19T06:53:44.131Z,36.40
2022-12-19T06:56:14.392Z,39.63
2022-12-19T06:58:42.633Z,34.13
2022-12-19T07:01:18.267Z,38.67
2022-12-19T07:03:49.336Z,34.50
2022-12-19T07:06:18.687Z,34.83
2022-12-19T07:08:47.149Z,32.90
2022-12-19T07:11:15.534Z,36.00
2022-12-19T07:13:43.545Z,36.30
2022-12-19T07:16:12.048Z,36.60
2022-12-19T07:18:41.821Z,37.03
2022-12-19T07:21:12.403Z,32.63
2022-12-19T07:23:42.001Z,36.13
2022-12-19T07:26:10.215Z,33.40
2022-12-19T07:28:38.890Z,34.60
2022-12-19T07:31:07.193Z,29.27
2022-12-19T07:33:35.307Z,35.83
2022-12-19T07:36:03.427Z,31.27
2022-12-19T07:38:33.102Z,37.87
2022-12-19T07:41:02.671Z,33.33
2022-12-19T07:43:31.040Z,33.00
2022-12-19T07:45:59.302Z,28.73
2022-12-19T07:48:28.798Z,28.90
2022-12-19T07:50:57.008Z,28.73
2022-12-19T07:53:25.519Z,29.80
2022-12-19T07:55:55.095Z,33.33
2022-12-19T07:58:23.322Z,34.87
2022-12-19T08:00:56.239Z,31.17
2022-12-19T08:03:24.610Z,34.00
2022-12-19T08:05:52.761Z,34.53
2022-12-19T08:08:21.421Z,31.53
2022-12-19T08:10:49.523Z,31.23
2022-12-19T08:13:19.684Z,32.57
2022-12-19T08:15:47.771Z,31.80
2022-12-19T08:18:15.869Z,31.90
2022-12-19T08:20:47.419Z,33.77
2022-12-19T08:23:15.507Z,36.90
2022-12-19T08:25:43.705Z,33.27
2022-12-19T08:28:11.747Z,28.60
2022-12-19T08:30:41.907Z,31.27
2022-12-19T08:33:09.975Z,29.87
2022-12-19T08:35:38.002Z,31.47
2022-12-19T08:38:06.551Z,33.40
2022-12-19T08:40:35.324Z,35.37
2022-12-19T08:43:03.384Z,32.83
2022-12-19T08:45:31.391Z,29.13
2022-12-19T08:48:00.893Z,33.17
2022-12-19T08:50:28.865Z,28.73
2022-12-19T08:52:56.944Z,29.73
2022-12-19T08:55:25.659Z,31.63
2022-12-19T08:57:58.932Z,29.70
2022-12-19T09:00:29.962Z,29.07
2022-12-19T09:02:58.390Z,28.07
2022-12-19T09:05:58.413Z,31.07
2022-12-19T09:08:16.829Z,25.13
2022-12-19T09:10:45.077Z,23.90
2022-12-19T09:13:13.651Z,26.40
2022-12-19T09:15:42.161Z,30.13
2022-12-19T09:18:10.426Z,28.47
2022-12-19T09:20:42.853Z,28.60
2022-12-19T09:23:11.270Z,29.40
2022-12-19T09:25:40.474Z,25.40
2022-12-19T09:28:27.599Z,26.60
2022-12-19T09:30:58.768Z,20.63
2022-12-19T09:33:28.621Z,22.93
2022-12-19T09:36:00.887Z,26.33
2022-12-19T09:38:32.198Z,23.63
2022-12-19T09:41:36.457Z,23.67
2022-12-19T09:44:17.627Z,23.27
2022-12-19T09:46:51.967Z,25.03
2022-12-19T09:49:25.606Z,28.63
2022-12-19T09:52:06.011Z,28.53
2022-12-19T09:54:40.353Z,26.87
2022-12-19T09:57:16.573Z,29.50
2022-12-19T09:59:50.235Z,27.37
2022-12-19T10:02:34.768Z,26.87
2022-12-19T10:05:37.970Z,22.17
2022-12-19T10:08:09.460Z,25.43
2022-12-19T10:12:41.098Z,24.27
2022-12-19T10:13:57.824Z,25.00
2022-12-19T10:16:39.441Z,25.60
2022-12-19T10:19:11.295Z,24.30
2022-12-19T10:22:19.408Z,25.90
2022-12-19T10:25:08.556Z,26.67
2022-12-19T10:27:59.311Z,19.83
2022-12-19T10:30:32.211Z,24.80
2022-12-19T10:33:11.652Z,24.67
2022-12-19T10:35:49.420Z,24.03
2022-12-19T10:38:26.879Z,28.47
2022-12-19T10:41:13.415Z,22.07
2022-12-19T10:43:54.568Z,23.10
2022-12-19T10:46:41.887Z,27.60
2022-12-19T10:49:16.876Z,25.17
2022-12-19T10:51:56.472Z,23.40
2022-12-19T10:54:37.241Z,24.40
2022-12-19T10:57:25.500Z,27.07
2022-12-19T10:59:59.333Z,24.73
2022-12-19T11:02:44.653Z,24.63
2022-12-19T11:05:28.407Z,23.97
2022-12-19T11:08:05.605Z,31.27
2022-12-19T11:11:40.350Z,28.13
2022-12-19T11:19:27.895Z,24.73
2022-12-19T11:23:16.897Z,26.23
2022-12-19T11:29:18.922Z,26.63
2022-12-19T11:30:05.879Z,27.17
2022-12-19T11:30:41.453Z,21.37
2022-12-19T11:30:59.586Z,24.93
2022-12-19T11:34:06.750Z,26.03
2022-12-19T11:36:40.776Z,27.40
2022-12-19T11:39:19.188Z,25.50
2022-12-19T11:41:57.164Z,23.30
2022-12-19T11:44:31.465Z,22.43
2022-12-19T11:47:12.976Z,24.70
2022-12-19T11:49:45.578Z,23.70
2022-12-19T11:53:02.415Z,23.87
2022-12-19T11:55:21.677Z,25.10
2022-12-19T11:57:51.106Z,22.87
2022-12-19T12:00:24.456Z,32.10
2022-12-19T12:03:24.376Z,23.40
2022-12-19T12:05:56.640Z,20.13
2022-12-19T12:10:08.891Z,25.40
2022-12-19T12:22:19.209Z,27.17
2022-12-19T12:24:05.031Z,18.17
2022-12-19T12:30:13.747Z,24.57
2022-12-19T12:31:10.540Z,24.03
2022-12-19T12:31:43.269Z,24.10
2022-12-19T12:31:50.628Z,19.37
2022-12-19T12:35:30.455Z,24.13
2022-12-19T12:37:54.152Z,21.90
2022-12-19T12:38:54.432Z,25.20
2022-12-19T12:41:58.153Z,21.07
2022-12-19T12:44:33.103Z,22.10
2022-12-19T12:47:07.407Z,22.10
2022-12-19T12:49:40.493Z,22.87
2022-12-19T12:52:12.534Z,23.77
2022-12-19T12:54:47.466Z,22.30
2022-12-19T12:57:46.617Z,27.17
2022-12-19T13:00:21.805Z,25.43
2022-12-19T13:02:55.668Z,24.13
2022-12-19T13:05:55.533Z,22.17
2022-12-19T13:08:38.179Z,29.23
2022-12-19T13:11:34.153Z,23.03
2022-12-19T13:14:02.591Z,22.80
2022-12-19T13:16:51.039Z,24.13
2022-12-19T13:19:28.000Z,25.23
2022-12-19T13:22:19.284Z,24.80
2022-12-19T13:24:50.436Z,23.60
2022-12-19T13:27:39.801Z,23.80
2022-12-19T13:30:29.749Z,25.23
2022-12-19T13:33:11.935Z,23.63
2022-12-19T13:37:04.089Z,24.87
2022-12-19T13:39:51.849Z,22.97
2022-12-19T13:41:47.260Z,22.20
2022-12-19T13:44:21.885Z,27.27
2022-12-19T13:46:51.632Z,27.43
2022-12-19T13:49:29.542Z,22.07
2022-12-19T13:52:01.523Z,23.27
2022-12-19T13:54:35.382Z,20.70
2022-12-19T13:57:09.601Z,23.00
2022-12-19T13:59:54.356Z,27.97
2022-12-19T14:02:44.272Z,26.27
2022-12-19T14:05:44.506Z,26.37
2022-12-19T14:08:20.997Z,23.00
2022-12-19T14:11:33.562Z,24.83
2022-12-19T14:14:10.193Z,21.97
2022-12-19T14:16:44.367Z,26.03
2022-12-19T14:19:24.295Z,25.27
2022-12-19T14:22:10.855Z,25.10
2022-12-19T14:24:41.646Z,25.27
2022-12-19T14:28:19.133Z,27.83
2022-12-19T14:30:28.719Z,27.60
2022-12-19T14:33:47.101Z,23.23
2022-12-19T14:36:10.212Z,30.20
2022-12-19T14:39:24.341Z,25.83
2022-12-19T14:42:01.734Z,26.17
2022-12-19T14:53:51.488Z,25.80
2022-12-19T14:54:31.033Z,23.60
2022-12-19T14:54:37.409Z,27.47
2022-12-19T14:56:57.558Z,27.73
2022-12-19T14:59:46.241Z,29.30
2022-12-19T15:02:32.848Z,23.20
2022-12-19T15:05:07.061Z,24.63
2022-12-19T15:07:38.526Z,23.57
2022-12-19T15:11:05.267Z,27.53
2022-12-19T15:14:58.507Z,30.77
2022-12-19T15:16:30.379Z,23.03
2022-12-19T15:19:00.556Z,28.30
2022-12-19T15:21:30.363Z,28.83
2022-12-19T15:24:01.368Z,29.40
2022-12-19T15:26:33.448Z,24.07
2022-12-19T15:29:02.330Z,28.93
2022-12-19T15:31:35.850Z,28.57
2022-12-19T15:34:35.096Z,27.57
2022-12-19T15:37:06.132Z,26.77
2022-12-19T15:39:37.849Z,30.40
2022-12-19T15:42:08.967Z,32.93
2022-12-19T15:44:40.656Z,30.00
2022-12-19T15:47:17.760Z,29.57
2022-12-19T15:49:46.999Z,34.30
2022-12-19T15:52:19.562Z,33.83
2022-12-19T15:54:51.478Z,32.47
2022-12-19T15:57:30.461Z,31.93
2022-12-19T16:00:01.986Z,29.53
2022-12-19T16:03:04.418Z,33.13
2022-12-19T16:05:23.701Z,35.63
2022-12-19T16:07:52.894Z,34.77
2022-12-19T16:10:23.969Z,35.73
2022-12-19T16:12:55.616Z,36.33
2022-12-19T16:15:28.935Z,35.23
2022-12-19T16:17:59.221Z,34.43
2022-12-19T16:20:29.135Z,40.33
2022-12-19T16:22:57.680Z,40.63
2022-12-19T16:25:35.201Z,41.17
2022-12-19T16:28:05.779Z,36.23
2022-12-19T16:30:36.291Z,40.40
2022-12-19T16:33:04.694Z,41.87
2022-12-19T16:36:02.967Z,39.13
2022-12-19T16:38:23.304Z,48.13
2022-12-19T16:40:54.171Z,39.23
2022-12-19T16:43:30.000Z,41.00
2022-12-19T16:46:01.768Z,48.63
2022-12-19T16:48:35.615Z,42.80
2022-12-19T16:51:11.144Z,37.43
2022-12-19T16:53:42.499Z,40.77
2022-12-19T16:56:22.539Z,44.97
2022-12-19T16:58:51.601Z,41.70
2022-12-19T17:01:29.342Z,45.10
2022-12-19T17:06:46.773Z,42.70
2022-12-19T17:09:16.818Z,43.80
2022-12-19T17:11:50.523Z,45.47
2022-12-19T17:14:21.321Z,45.53
2022-12-19T17:16:55.327Z,37.30
2022-12-19T17:19:27.813Z,50.57
2022-12-19T17:22:04.868Z,43.03
2022-12-19T17:24:40.925Z,44.80
2022-12-19T17:27:10.778Z,47.07
2022-12-19T17:29:39.950Z,44.20
2022-12-19T17:32:10.403Z,44.30
2022-12-19T17:34:40.023Z,45.77
2022-12-19T17:37:10.917Z,44.57
2022-12-19T17:39:42.160Z,45.90
2022-12-19T17:42:23.824Z,45.70
2022-12-19T17:44:53.973Z,43.40
2022-12-19T17:47:25.748Z,44.97
2022-12-19T17:49:55.136Z,44.00
2022-12-19T17:52:25.238Z,43.27
2022-12-19T17:54:55.049Z,41.77
2022-12-19T17:57:28.165Z,49.10
2022-12-19T17:59:56.773Z,43.90
2022-12-19T18:02:27.588Z,41.73
2022-12-19T18:04:58.361Z,40.90
2022-12-19T18:07:27.905Z,42.07
2022-12-19T18:09:56.658Z,45.30
2022-12-19T18:12:27.890Z,43.97
2022-12-19T18:14:58.277Z,46.00
2022-12-19T18:17:28.657Z,43.63
2022-12-19T18:20:05.197Z,50.90
2022-12-19T18:22:36.313Z,37.17
2022-12-19T18:25:05.827Z,42.30
2022-12-19T18:27:37.558Z,34.33
2022-12-19T18:30:12.403Z,31.07
2022-12-19T18:32:54.841Z,30.13
2022-12-19T18:35:27.895Z,32.07
2022-12-19T18:37:58.771Z,24.33
2022-12-19T18:41:31.562Z,23.33
2022-12-19T18:46:34.616Z,26.87
2022-12-19T18:49:05.519Z,21.17
2022-12-19T18:51:33.965Z,20.83
2022-12-19T18:54:02.018Z,20.00
2022-12-19T18:56:31.595Z,19.43
2022-12-19T18:59:07.786Z,17.67
2022-12-19T19:01:42.115Z,16.63
2022-12-19T19:04:13.385Z,15.63
2022-12-19T19:06:50.313Z,17.30
2022-12-19T19:09:21.914Z,14.87
2022-12-19T19:11:50.839Z,16.27
2022-12-19T19:14:19.493Z,14.27
2022-12-19T19:16:52.072Z,15.77
2022-12-19T19:19:20.721Z,16.13
2022-12-19T19:21:49.163Z,13.17
2022-12-19T19:24:20.707Z,12.13
2022-12-19T19:26:57.039Z,14.50
2022-12-19T19:35:17.890Z,15.73
2022-12-19T19:37:46.521Z,14.47
2022-12-19T19:40:15.663Z,13.27
2022-12-19T19:42:45.764Z,12.80
2022-12-19T19:45:14.487Z,12.47
2022-12-19T19:47:45.148Z,12.47
2022-12-19T19:50:14.279Z,15.17
2022-12-19T19:52:49.106Z,12.97
2022-12-19T19:55:18.260Z,14.27
2022-12-19T19:57:50.429Z,17.37
2022-12-19T20:00:19.610Z,12.43
2022-12-19T20:03:08.372Z,14.13
2022-12-19T20:05:38.464Z,15.77
2022-12-19T20:08:07.738Z,19.03
2022-12-19T20:10:36.746Z,14.33
2022-12-19T20:13:05.657Z,14.27
2022-12-19T20:15:35.695Z,16.43
2022-12-19T20:18:11.269Z,18.93
2022-12-19T20:20:40.401Z,13.20
2022-12-19T20:23:08.874Z,13.23
2022-12-19T20:25:41.944Z,13.50
2022-12-19T20:28:10.989Z,12.03
2022-12-19T20:30:43.551Z,13.50
2022-12-19T20:33:13.673Z,12.10
2022-12-19T20:35:42.927Z,13.00
2022-12-19T20:38:11.891Z,16.03
2022-12-19T20:44:31.661Z,17.20
2022-12-19T20:47:00.758Z,20.47
2022-12-19T20:55:32.135Z,16.83
2022-12-19T20:58:11.623Z,19.67
2022-12-19T21:00:40.573Z,18.00
2022-12-19T21:08:46.173Z,14.73
2022-12-19T21:12:12.120Z,16.77
2022-12-19T21:14:50.645Z,16.50
2022-12-19T21:19:02.204Z,17.40
2022-12-19T21:21:35.290Z,18.13
2022-12-19T21:24:58.897Z,16.43
2022-12-19T21:28:32.813Z,18.33
2022-12-19T21:32:18.830Z,15.83
2022-12-19T21:38:26.677Z,16.30
2022-12-19T21:40:56.972Z,17.40
2022-12-19T21:43:30.298Z,13.93
2022-12-19T21:46:08.456Z,14.77
2022-12-19T21:48:39.575Z,16.93
2022-12-19T21:51:08.990Z,16.33
2022-12-19T21:53:39.790Z,12.40
2022-12-19T21:56:21.472Z,14.77
2022-12-19T21:58:51.296Z,13.03
2022-12-19T22:01:21.441Z,15.43
2022-12-19T22:03:51.546Z,16.33
2022-12-19T22:06:27.968Z,15.97
2022-12-19T22:08:58.208Z,17.73
2022-12-19T22:11:30.793Z,14.77
2022-12-19T22:14:00.740Z,16.47
2022-12-19T22:16:30.410Z,19.90
2022-12-19T22:19:00.275Z,16.10
2022-12-19T22:24:14.076Z,17.27
2022-12-19T22:26:45.283Z,17.73
2022-12-19T22:29:17.458Z,13.73
2022-12-19T22:31:46.633Z,13.03
2022-12-19T22:34:17.004Z,14.20
2022-12-19T22:36:46.840Z,15.47
2022-12-19T22:39:18.038Z,13.67
2022-12-19T22:41:50.134Z,14.90
2022-12-19T22:44:20.586Z,15.57
2022-12-19T22:46:49.759Z,18.07
2022-12-19T22:49:19.800Z,16.37
2022-12-19T22:51:48.432Z,19.20
2022-12-19T22:54:16.830Z,20.13
2022-12-19T22:56:45.513Z,14.33
2022-12-19T22:59:15.632Z,17.97
2022-12-19T23:01:45.392Z,19.90
2022-12-19T23:04:15.862Z,18.13
2022-12-19T23:06:45.179Z,16.80
2022-12-19T23:09:16.181Z,15.93
2022-12-19T23:11:46.618Z,15.23
2022-12-19T23:14:18.619Z,18.23
2022-12-19T23:16:47.482Z,14.10
2022-12-19T23:19:17.058Z,16.87
2022-12-19T23:21:46.112Z,16.13
2022-12-19T23:24:14.900Z,18.00
2022-12-19T23:26:43.407Z,20.87
2022-12-19T23:29:13.732Z,17.00
2022-12-19T23:31:45.168Z,22.00
2022-12-19T23:34:14.517Z,16.20
2022-12-19T23:37:10.211Z,18.87
2022-12-19T23:39:32.101Z,19.20
2022-12-19T23:42:00.575Z,17.30
2022-12-19T23:44:30.009Z,16.20
2022-12-19T23:47:03.886Z,15.33
2022-12-19T23:49:33.002Z,15.87
2022-12-19T23:52:01.605Z,17.73
2022-12-19T23:54:30.127Z,15.17
2022-12-19T23:56:59.263Z,19.50
2022-12-19T23:59:27.598Z,16.33
